메인 페이지
METAR-TAF:

METAR-TAF

공항 :

보스턴, 매사추세츠, 미국

로건 국제공항

위도: 42-21-38N, 경도: 071-00-38W, 고도: 6m

현재 날씨관측

예보는 22분 전, 18:54시(UTC)에 발표되었습니다.
7kt
온도 1°C
습도 55%
기압 1013 hPa
시정: 16.1km
고도 3200ft 상공 구름 많음
고도 20000ft 상공 흐림

METAR: KBOS 191854Z 27007KT 10SM BKN032 OVC200 01/M07 A2992 RMK AO2 SLP130 T00061072

시각: 14:16 (19:16 UTC)

예보

예보는 1 시간 45분 전, 17:31시(UTC)에 발표되었습니다.
예보 대상 시간: 19일 18시부터 20일 24시까지 (UTC)
서남서5kt
시정: 10km
고도 4000ft 상공 구름 많음
20일 0300시부터 (UTC)
남서9kt
시정: 10km
고도 5000ft 상공 구름 많음
20일 0900시부터 (UTC)
남서12kt, 순간 최대 풍속 22kt
시정: 10km
고도 5000ft 상공 구름 많음
20일 1400시부터 (UTC)
남서15kt, 순간 최대 풍속 24kt
시정: 10km
고도 5000ft 상공 구름 많음
20일 2000시부터 (UTC)
서남서11kt, 순간 최대 풍속 20kt
시정: 10km
고도 14000ft 상공 구름 보통

TAF: KBOS 191731Z 1918/2024 25005KT P6SM BKN040 FM200300 23009KT P6SM BKN050 FM200900 23012G22KT P6SM BKN050 WS020/24040KT FM201400 23015G24KT P6SM BKN050 FM202000 25011G20KT P6SM SCT140

4,000개 이상의 공항 관측 자료 및 예보 (METAR 및 TAF 보고).

지도상에서 검색 가능한 기상관측소가 노란 점과 빨간 점으로 표시되어 있습니다.

기상관측소 명을 보려면 표시 위로 마우스를 이동하세요.

날씨 관측과 예보를 보려면 클릭하세요.

지도 변경 : 확대하려면 엑스 표시가 있는 녹색 버튼, 축소하려면 빼기 표시가 있는 녹색 버튼, 다음 페이지의 지도를 보려면 녹색 화살표를 클릭하세요.


METAR-TAF: